Time;durP1;ratioP1;P1;durP2;ratioP2;P2;SDS_P1;SDS_P2;PMS_P1;PMS_P2;Temp;Humidity;BMP_temperature;BMP_pressure;BME280_temperature;BME280_humidity;BME280_pressure;Samples;Min_cycle;Max_cycle;Signal;HPM_P1;HPM_P2
2021/08/05 00:00:09;;;;;;;3.83;3.53;;;15.90;28.60;;;;;;5081478;28;20423;-82
2021/08/05 00:02:53;;;;;;;4.53;3.67;;;15.80;26.00;;;;;;5079531;28;20487;-82
2021/08/05 00:05:50;;;;;;;4.60;3.20;;;15.60;25.90;;;;;;5062353;28;20444;-82
2021/08/05 00:08:42;;;;;;;3.83;2.90;;;15.50;27.20;;;;;;5062894;28;20438;-82
2021/08/05 00:11:10;;;;;;;4.50;3.50;;;15.50;29.30;;;;;;5062520;28;20904;-82
2021/08/05 00:13:46;;;;;;;4.67;4.20;;;15.40;31.00;;;;;;5061525;28;20462;-81
2021/08/05 00:16:15;;;;;;;4.10;3.67;;;15.60;36.70;;;;;;5061911;28;20444;-82
2021/08/05 00:18:44;;;;;;;4.40;2.67;;;15.50;32.40;;;;;;5062544;28;20438;-82
2021/08/05 00:21:12;;;;;;;3.10;2.50;;;15.40;32.10;;;;;;5062552;28;20446;-81
2021/08/05 00:23:43;;;;;;;5.53;3.23;;;15.40;35.60;;;;;;5062763;28;20497;-82
2021/08/05 00:26:12;;;;;;;4.27;3.50;;;15.40;36.70;;;;;;5063164;28;20478;-85
2021/08/05 00:28:42;;;;;;;3.80;3.20;;;15.30;37.50;;;;;;5080541;28;20485;-82
2021/08/05 00:31:11;;;;;;;3.37;2.83;;;15.30;39.90;;;;;;5063809;28;20438;-83
2021/08/05 00:33:40;;;;;;;3.77;3.00;;;15.30;42.40;;;;;;5062159;28;20462;-82
2021/08/05 00:36:09;;;;;;;3.67;3.37;;;15.30;42.90;;;;;;5069637;28;20416;-81
2021/08/05 00:38:38;;;;;;;4.50;3.30;;;15.30;45.90;;;;;;5064969;28;20509;-83
2021/08/05 00:41:07;;;;;;;3.70;2.80;;;15.20;43.20;;;;;;5064236;28;20445;-83
2021/08/05 00:43:36;;;;;;;3.07;2.70;;;15.20;45.00;;;;;;5064085;28;20558;-83
2021/08/05 00:46:06;;;;;;;3.00;2.50;;;15.20;46.90;;;;;;5061581;28;20431;-82
2021/08/05 00:48:35;;;;;;;7.33;3.07;;;15.10;47.90;;;;;;5077716;28;20492;-83
2021/08/05 00:51:03;;;;;;;3.70;3.20;;;15.10;50.70;;;;;;5059750;28;20453;-83
2021/08/05 00:53:32;;;;;;;4.03;3.17;;;15.10;51.80;;;;;;5061910;28;20553;-83
2021/08/05 00:56:01;;;;;;;3.43;3.13;;;15.00;52.00;;;;;;5079912;28;20850;-83
2021/08/05 00:58:29;;;;;;;3.97;2.90;;;15.00;54.10;;;;;;5063368;28;20431;-83
2021/08/05 01:01:07;;;;;;;3.70;3.13;;;15.00;53.50;;;;;;5062771;28;20465;-83
2021/08/05 01:03:42;;;;;;;3.57;2.60;;;15.10;54.90;;;;;;5062943;28;21028;-82
2021/08/05 01:06:23;;;;;;;4.00;3.00;;;15.10;54.40;;;;;;5063081;28;20448;-82
2021/08/05 01:08:58;;;;;;;4.80;3.10;;;15.00;53.80;;;;;;5062885;28;20476;-83
2021/08/05 01:11:31;;;;;;;3.03;2.70;;;15.10;56.20;;;;;;5062789;28;20426;-83
2021/08/05 01:14:04;;;;;;;3.60;3.03;;;15.20;59.60;;;;;;5063361;28;20430;-83
2021/08/05 01:16:36;;;;;;;5.20;3.00;;;15.20;53.80;;;;;;5066809;28;20434;-82
2021/08/05 01:19:12;;;;;;;4.10;3.17;;;15.10;52.80;;;;;;5071654;28;20795;-83
2021/08/05 01:21:51;;;;;;;6.60;2.47;;;15.00;56.50;;;;;;5063584;28;20492;-83
2021/08/05 01:24:24;;;;;;;5.30;3.40;;;15.00;60.30;;;;;;5063278;28;20434;-84
2021/08/05 01:27:02;;;;;;;3.03;2.43;;;14.90;63.70;;;;;;5062958;28;20979;-83
2021/08/05 01:29:34;;;;;;;3.87;3.47;;;14.80;69.90;;;;;;5063192;28;20829;-82
2021/08/05 01:32:06;;;;;;;5.27;3.43;;;14.90;74.20;;;;;;5062677;28;20462;-83
2021/08/05 01:34:37;;;;;;;4.40;3.00;;;14.80;78.70;;;;;;5063136;28;20454;-83
2021/08/05 01:37:08;;;;;;;9.00;4.53;;;14.80;81.60;;;;;;5060685;28;20492;-83
2021/08/05 01:39:36;;;;;;;2.93;2.63;;;14.80;88.50;;;;;;5081086;28;20446;-82
2021/08/05 01:42:08;;;;;;;3.57;2.33;;;14.80;86.90;;;;;;5062853;28;20492;-83
2021/08/05 01:44:37;;;;;;;2.77;2.23;;;14.70;96.20;;;;;;5061981;28;20439;-83
2021/08/05 01:47:07;;;;;;;4.40;3.13;;;14.70;91.60;;;;;;5079510;28;20462;-83
2021/08/05 01:49:37;;;;;;;3.87;2.87;;;14.70;92.80;;;;;;5062055;28;21001;-83
2021/08/05 01:52:07;;;;;;;4.17;3.50;;;14.70;94.20;;;;;;5063394;28;20523;-83
2021/08/05 01:54:36;;;;;;;3.43;1.83;;;14.60;95.70;;;;;;5061909;28;20442;-81
2021/08/05 01:57:10;;;;;;;5.70;3.07;;;14.60;96.70;;;;;;5077003;28;20437;-81
2021/08/05 01:59:38;;;;;;;3.50;3.17;;;14.60;98.60;;;;;;5061275;28;20417;-83
2021/08/05 02:02:08;;;;;;;5.13;3.20;;;14.60;97.90;;;;;;5062951;28;20454;-83
2021/08/05 02:04:46;;;;;;;3.10;2.60;;;14.60;99.20;;;;;;5065303;28;20445;-83
2021/08/05 02:07:18;;;;;;;4.87;2.60;;;14.60;99.90;;;;;;5066114;28;20449;-82
2021/08/05 02:09:54;;;;;;;3.20;2.30;;;14.60;99.30;;;;;;5082218;28;20822;-83
2021/08/05 02:12:25;;;;;;;3.57;2.80;;;14.60;99.90;;;;;;5065726;28;20465;-83
2021/08/05 02:14:55;;;;;;;3.30;2.60;;;14.70;99.90;;;;;;5065697;28;20443;-83
2021/08/05 02:17:47;;;;;;;4.40;3.10;;;14.70;98.20;;;;;;5080548;28;20415;-83
2021/08/05 02:20:17;;;;;;;3.27;2.97;;;14.80;97.10;;;;;;5083057;28;20901;-84
2021/08/05 02:22:46;;;;;;;2.97;2.67;;;14.70;95.90;;;;;;5065039;28;20500;-83
2021/08/05 02:25:15;;;;;;;3.23;2.90;;;14.60;97.00;;;;;;5066215;28;20449;-82
2021/08/05 02:27:49;;;;;;;4.17;2.90;;;14.60;99.10;;;;;;5065746;28;20477;-83
2021/08/05 02:30:19;;;;;;;2.67;2.43;;;14.50;99.90;;;;;;5065111;28;20617;-83
2021/08/05 02:32:49;;;;;;;4.40;3.37;;;14.50;99.90;;;;;;5066296;28;20545;-83
2021/08/05 02:35:19;;;;;;;2.77;2.50;;;14.50;99.90;;;;;;5084253;28;20411;-83
2021/08/05 02:37:48;;;;;;;4.13;3.30;;;14.40;99.90;;;;;;5063135;28;20992;-82
2021/08/05 02:40:17;;;;;;;2.73;2.17;;;14.40;99.90;;;;;;5080945;28;20509;-83
2021/08/05 02:42:48;;;;;;;5.00;2.97;;;14.40;99.90;;;;;;5065465;28;20487;-83
2021/08/05 02:45:18;;;;;;;4.53;3.30;;;14.50;99.90;;;;;;5065347;28;20525;-83
2021/08/05 02:47:47;;;;;;;2.73;2.50;;;14.50;99.90;;;;;;5066037;28;20473;-84
2021/08/05 02:50:16;;;;;;;2.90;2.47;;;14.40;99.90;;;;;;5065106;28;20519;-84
2021/08/05 02:52:46;;;;;;;3.03;2.67;;;14.30;99.90;;;;;;5064742;28;20975;-81
2021/08/05 02:55:14;;;;;;;3.07;2.77;;;14.40;99.90;;;;;;5081262;28;20430;-83
2021/08/05 02:57:43;;;;;;;3.30;2.97;;;14.40;99.90;;;;;;5066704;28;20420;-83
2021/08/05 03:00:14;;;;;;;4.30;3.20;;;14.30;99.90;;;;;;5081904;28;20494;-80
2021/08/05 03:02:43;;;;;;;3.80;3.30;;;14.30;99.90;;;;;;5081813;28;20438;-80
2021/08/05 03:05:13;;;;;;;3.87;2.10;;;14.20;99.90;;;;;;5081779;28;20418;-80
2021/08/05 03:07:42;;;;;;;4.90;2.83;;;14.30;99.90;;;;;;5099125;28;20442;-82
2021/08/05 03:10:17;;;;;;;3.90;3.50;;;14.30;99.90;;;;;;5081865;28;20425;-80
2021/08/05 03:12:45;;;;;;;7.93;3.10;;;14.20;99.90;;;;;;5081579;28;20472;-81
2021/08/05 03:15:15;;;;;;;2.80;2.20;;;14.20;99.90;;;;;;5098871;28;20401;-80
2021/08/05 03:17:44;;;;;;;3.60;2.83;;;14.30;99.90;;;;;;5081464;28;20425;-80
2021/08/05 03:20:16;;;;;;;3.10;2.80;;;14.30;99.90;;;;;;5081363;28;20502;-81
2021/08/05 03:22:45;;;;;;;4.53;3.07;;;14.50;99.90;;;;;;5098157;28;20448;-81
2021/08/05 03:25:14;;;;;;;9.80;3.50;;;14.60;99.90;;;;;;5081550;28;20490;-80
2021/08/05 03:27:42;;;;;;;4.00;2.90;;;14.50;99.90;;;;;;5081529;28;20469;-80
2021/08/05 03:30:12;;;;;;;5.30;3.57;;;14.50;99.90;;;;;;5098932;28;20479;-80
2021/08/05 03:32:43;;;;;;;4.23;2.70;;;14.50;99.90;;;;;;5081257;28;20449;-79
2021/08/05 03:35:11;;;;;;;3.30;3.00;;;14.40;99.90;;;;;;5081545;28;20419;-80
2021/08/05 03:37:40;;;;;;;3.83;2.97;;;14.50;99.90;;;;;;5081588;28;20485;-81
2021/08/05 03:40:09;;;;;;;4.27;3.30;;;14.40;99.90;;;;;;5081505;28;20439;-80
2021/08/05 03:42:38;;;;;;;7.43;3.33;;;14.40;99.90;;;;;;5081215;28;20609;-80
2021/08/05 03:45:07;;;;;;;4.53;2.97;;;14.40;99.90;;;;;;5081432;28;20514;-80
2021/08/05 03:47:36;;;;;;;4.53;2.97;;;14.40;99.90;;;;;;5098002;28;20442;-80
2021/08/05 03:50:08;;;;;;;3.80;3.40;;;14.40;99.90;;;;;;5080974;28;20438;-81
2021/08/05 03:52:41;;;;;;;8.63;3.70;;;14.40;99.90;;;;;;5080864;28;20497;-81
2021/08/05 03:55:13;;;;;;;4.30;3.30;;;14.40;99.90;;;;;;5098335;28;20466;-80
2021/08/05 03:57:42;;;;;;;4.30;3.57;;;14.50;99.90;;;;;;5080985;28;20536;-80
2021/08/05 04:00:14;;;;;;;4.10;3.07;;;14.50;99.90;;;;;;5097531;28;20405;-79
2021/08/05 04:02:44;;;;;;;4.60;2.70;;;14.60;99.90;;;;;;5098280;28;20460;-81
2021/08/05 04:05:14;;;;;;;9.10;3.37;;;14.70;99.90;;;;;;5094182;28;20435;-82
2021/08/05 04:07:43;;;;;;;5.33;3.77;;;14.50;99.90;;;;;;5092882;28;20394;-82
2021/08/05 04:10:12;;;;;;;3.20;2.90;;;14.70;99.90;;;;;;5093579;28;20430;-83
2021/08/05 04:12:41;;;;;;;3.67;3.03;;;14.70;98.00;;;;;;5077033;28;20904;-82
2021/08/05 04:15:10;;;;;;;5.70;5.07;;;14.90;99.90;;;;;;5076708;28;20428;-83
2021/08/05 04:17:40;;;;;;;4.23;3.70;;;15.00;91.10;;;;;;5077657;28;20422;-83
2021/08/05 04:20:10;;;;;;;3.10;2.80;;;14.90;90.80;;;;;;5078311;28;20466;-81
2021/08/05 04:22:41;;;;;;;4.13;2.50;;;14.80;89.90;;;;;;5076710;28;20882;-83
2021/08/05 04:25:10;;;;;;;4.70;3.07;;;14.90;93.40;;;;;;5076079;28;20427;-83
2021/08/05 04:27:40;;;;;;;7.23;3.43;;;14.80;90.80;;;;;;5075657;28;20441;-83
2021/08/05 04:30:11;;;;;;;4.07;3.13;;;15.00;88.10;;;;;;5074450;28;20458;-84
2021/08/05 04:32:40;;;;;;;7.20;2.93;;;15.00;80.20;;;;;;5090361;28;20438;-83
2021/08/05 04:35:11;;;;;;;6.97;2.67;;;15.40;83.50;;;;;;5072605;28;20435;-83
2021/08/05 04:37:52;;;;;;;4.70;3.23;;;15.50;53.80;;;;;;5072813;28;20438;-83
2021/08/05 04:40:22;;;;;;;3.43;2.70;;;15.60;48.70;;;;;;5072111;28;20438;-83
2021/08/05 04:42:50;;;;;;;3.87;3.43;;;15.80;44.50;;;;;;5072213;28;20472;-82
2021/08/05 04:45:21;;;;;;;7.37;3.30;;;16.60;37.90;;;;;;5072842;28;20536;-83
2021/08/05 04:47:54;;;;;;;5.60;3.90;;;17.50;25.40;;;;;;5072475;28;20405;-82
2021/08/05 04:50:24;;;;;;;3.23;2.37;;;18.20;15.40;;;;;;5072105;28;20458;-83
2021/08/05 04:52:56;;;;;;;4.40;2.30;;;18.20;10.50;;;;;;5071526;28;20453;-82
2021/08/05 04:55:25;;;;;;;4.90;2.17;;;18.90;6.70;;;;;;5087056;28;20425;-82
2021/08/05 04:57:56;;;;;;;3.97;3.17;;;19.40;2.60;;;;;;5069920;28;20447;-83
2021/08/05 05:00:26;;;;;;;5.77;3.40;;;19.90;1.00;;;;;;5088825;28;20404;-83
2021/08/05 05:02:55;;;;;;;3.50;2.67;;;20.40;1.00;;;;;;5086445;28;20465;-82
2021/08/05 05:05:25;;;;;;;3.17;2.83;;;20.80;1.00;;;;;;5069805;28;20445;-83
2021/08/05 05:07:56;;;;;;;5.90;3.07;;;21.00;1.00;;;;;;5070670;28;20445;-83
2021/08/05 05:10:25;;;;;;;3.40;2.80;;;21.30;1.00;;;;;;5070990;28;20469;-83
2021/08/05 05:12:53;;;;;;;2.23;2.03;;;21.80;1.00;;;;;;5071088;28;20461;-83
2021/08/05 05:15:22;;;;;;;3.10;2.80;;;22.30;1.00;;;;;;5071744;28;20435;-83
2021/08/05 05:17:51;;;;;;;4.47;3.30;;;22.90;1.00;;;;;;5071825;28;20446;-83
2021/08/05 05:20:19;;;;;;;3.60;2.83;;;23.10;1.00;;;;;;5071612;28;20488;-83
2021/08/05 05:22:48;;;;;;;4.57;3.17;;;23.00;1.00;;;;;;5089351;28;20446;-82
2021/08/05 05:25:21;;;;;;;3.87;3.00;;;22.30;1.00;;;;;;5068714;28;20432;-82
2021/08/05 05:35:04;;;;;;;3.23;2.93;;;20.90;1.00;;;;;;5073643;28;20474;-82
2021/08/05 05:37:32;;;;;;;3.73;2.73;;;19.10;1.00;;;;;;5056766;28;20428;-82
2021/08/05 05:40:01;;;;;;;3.50;2.73;;;18.40;1.00;;;;;;5076685;28;20442;-82
2021/08/05 05:42:31;;;;;;;6.63;3.50;;;17.90;1.00;;;;;;5060938;28;20458;-82
2021/08/05 05:45:00;;;;;;;5.80;5.20;;;17.50;1.00;;;;;;5062164;28;20438;-82
2021/08/05 05:47:28;;;;;;;4.17;3.10;;;17.50;1.00;;;;;;5061396;28;20405;-82
2021/08/05 05:49:57;;;;;;;6.03;3.80;;;17.50;1.00;;;;;;5062171;28;20480;-82
2021/08/05 05:52:27;;;;;;;5.40;4.23;;;17.40;1.00;;;;;;5113088;22;20856;-76
2021/08/05 05:54:55;;;;;;;4.07;3.60;;;17.20;1.00;;;;;;5103311;28;20448;-76
2021/08/05 05:57:23;;;;;;;3.20;2.90;;;17.20;1.00;;;;;;5074664;28;20812;-77
2021/08/05 05:59:53;;;;;;;3.50;3.17;;;17.50;1.00;;;;;;5074988;28;20425;-77
2021/08/05 06:02:21;;;;;;;6.07;3.17;;;17.90;1.00;;;;;;5074867;28;20469;-76
2021/08/05 06:04:49;;;;;;;3.70;3.40;;;17.90;1.00;;;;;;5092656;28;20829;-77
2021/08/05 06:07:17;;;;;;;4.07;3.73;;;18.10;1.00;;;;;;5092491;28;20931;-76
2021/08/05 06:09:45;;;;;;;5.43;4.87;;;18.00;1.00;;;;;;5091987;28;20461;-77
2021/08/05 06:12:14;;;;;;;5.43;3.20;;;18.10;1.00;;;;;;5074130;28;20414;-77
2021/08/05 06:14:42;;;;;;;4.37;3.40;;;18.20;1.00;;;;;;5092383;28;20431;-77
2021/08/05 06:17:12;;;;;;;4.30;3.70;;;18.60;1.00;;;;;;5092169;28;20453;-76
2021/08/05 06:19:40;;;;;;;4.93;3.53;;;18.70;1.00;;;;;;5092485;28;20392;-76
2021/08/05 06:22:10;;;;;;;10.30;5.10;;;18.80;1.00;;;;;;5092643;28;20536;-78
2021/08/05 06:24:39;;;;;;;7.90;4.63;;;19.10;1.00;;;;;;5092176;28;20504;-76
2021/08/05 06:27:07;;;;;;;5.13;4.47;;;19.30;1.00;;;;;;5074273;28;20437;-77
2021/08/05 06:29:35;;;;;;;4.33;3.47;;;19.10;1.00;;;;;;5092134;28;20457;-76
2021/08/05 06:32:04;;;;;;;4.93;4.53;;;18.90;1.00;;;;;;5092578;28;20985;-76
2021/08/05 06:34:33;;;;;;;5.50;4.90;;;18.80;1.00;;;;;;5092211;28;20459;-76
2021/08/05 06:37:02;;;;;;;5.37;3.87;;;18.90;1.00;;;;;;5092363;28;20422;-77
2021/08/05 06:39:30;;;;;;;4.73;4.33;;;19.20;1.00;;;;;;5091830;28;20464;-75
2021/08/05 06:41:58;;;;;;;5.50;4.20;;;19.00;1.00;;;;;;5092332;28;20971;-76
2021/08/05 06:44:26;;;;;;;4.93;4.37;;;19.00;1.00;;;;;;5092505;28;20433;-77
2021/08/05 06:46:56;;;;;;;5.30;4.80;;;19.00;1.00;;;;;;5092009;28;20446;-77
2021/08/05 06:49:24;;;;;;;5.07;4.57;;;18.90;1.00;;;;;;5072821;28;20552;-76
2021/08/05 06:51:54;;;;;;;5.53;4.17;;;19.10;1.00;;;;;;5073438;28;20460;-76
2021/08/05 06:54:22;;;;;;;6.83;5.00;;;19.60;1.00;;;;;;5092073;28;20392;-76
2021/08/05 06:56:50;;;;;;;4.77;4.27;;;19.90;1.00;;;;;;5091304;28;20422;-77
2021/08/05 06:59:19;;;;;;;6.27;5.37;;;20.30;1.00;;;;;;5091666;28;20408;-77
2021/08/05 07:01:47;;;;;;;5.70;5.17;;;20.00;1.00;;;;;;5091435;28;20441;-76
2021/08/05 07:04:16;;;;;;;11.93;5.47;;;19.90;1.00;;;;;;5073780;28;20441;-76
2021/08/05 07:06:44;;;;;;;6.20;4.70;;;19.80;1.00;;;;;;5090759;28;20410;-75
2021/08/05 07:09:13;;;;;;;6.57;4.67;;;19.80;1.00;;;;;;5091587;28;20401;-76
2021/08/05 07:11:42;;;;;;;6.70;5.50;;;19.50;1.00;;;;;;5091698;28;20420;-77
2021/08/05 07:14:10;;;;;;;17.17;4.40;;;19.30;1.00;;;;;;5091626;28;20380;-76
2021/08/05 07:16:38;;;;;;;5.80;4.33;;;19.50;1.00;;;;;;5090915;28;20425;-78
2021/08/05 07:19:06;;;;;;;5.37;4.87;;;19.60;1.00;;;;;;5082524;28;20408;-77
2021/08/05 07:21:34;;;;;;;6.87;5.57;;;19.40;1.00;;;;;;5096195;28;20430;-78
2021/08/05 07:24:03;;;;;;;8.03;5.47;;;19.50;1.00;;;;;;5075811;28;20415;-78
2021/08/05 07:26:32;;;;;;;6.03;4.93;;;19.70;1.00;;;;;;5096296;28;20424;-77
2021/08/05 07:29:01;;;;;;;5.37;4.87;;;19.70;1.00;;;;;;5094846;28;20461;-77
2021/08/05 07:31:29;;;;;;;4.87;4.37;;;19.80;1.00;;;;;;5073110;28;20458;-77
2021/08/05 07:33:57;;;;;;;9.10;4.37;;;20.00;1.00;;;;;;5091702;28;20418;-77
2021/08/05 07:36:26;;;;;;;5.50;4.00;;;20.50;1.00;;;;;;5073737;28;20415;-77
2021/08/05 07:38:57;;;;;;;11.97;6.77;;;20.80;1.00;;;;;;5076311;28;20404;-78
2021/08/05 07:41:25;;;;;;;4.50;4.10;;;21.00;1.00;;;;;;5096224;28;20419;-78
2021/08/05 07:43:55;;;;;;;6.23;4.60;;;21.30;1.00;;;;;;5095553;28;20422;-79
2021/08/05 07:46:23;;;;;;;5.17;4.67;;;21.40;1.00;;;;;;5094458;28;20429;-79
2021/08/05 07:48:51;;;;;;;5.83;5.23;;;21.10;1.00;;;;;;5095366;28;20411;-78
2021/08/05 07:51:19;;;;;;;5.47;4.20;;;20.90;1.00;;;;;;5094028;28;20451;-79
2021/08/05 07:53:47;;;;;;;5.80;5.20;;;20.90;1.00;;;;;;5091794;28;20447;-77
2021/08/05 07:56:15;;;;;;;7.37;6.10;;;20.70;1.00;;;;;;5092935;28;20392;-77
2021/08/05 07:58:44;;;;;;;6.27;5.23;;;20.80;1.00;;;;;;5097408;28;20488;-77
2021/08/05 08:01:13;;;;;;;6.10;4.47;;;21.00;1.00;;;;;;5102240;28;20522;-78
2021/08/05 08:03:42;;;;;;;5.80;5.30;;;20.90;1.00;;;;;;5105501;28;20421;-78
2021/08/05 08:06:10;;;;;;;4.97;4.50;;;21.00;1.00;;;;;;5083453;28;20437;-79
2021/08/05 08:08:38;;;;;;;4.27;3.90;;;21.20;1.00;;;;;;5095522;28;20392;-78
2021/08/05 08:11:06;;;;;;;6.33;5.23;;;20.70;1.00;;;;;;5096551;28;20443;-79
2021/08/05 08:13:34;;;;;;;5.33;4.83;;;20.70;1.00;;;;;;5100804;28;20443;-77
2021/08/05 08:16:03;;;;;;;5.40;4.90;;;21.00;1.00;;;;;;5094338;28;20464;-78
2021/08/05 08:18:34;;;;;;;6.80;4.90;;;21.00;1.00;;;;;;5086480;28;20465;-77
2021/08/05 08:21:02;;;;;;;7.37;5.97;;;20.90;1.00;;;;;;5104695;28;20491;-77
2021/08/05 08:23:30;;;;;;;8.23;4.77;;;20.80;1.00;;;;;;5095353;28;20403;-76
2021/08/05 08:25:58;;;;;;;6.17;5.67;;;20.90;1.00;;;;;;5094021;28;20427;-77
2021/08/05 08:28:27;;;;;;;4.90;4.50;;;21.00;1.00;;;;;;5091913;28;20882;-77
2021/08/05 08:30:55;;;;;;;5.83;5.07;;;21.00;1.00;;;;;;5093289;28;20473;-78
2021/08/05 08:33:23;;;;;;;5.20;4.67;;;21.10;1.00;;;;;;5097941;28;20391;-78
2021/08/05 08:35:53;;;;;;;5.30;4.37;;;21.10;1.00;;;;;;5098985;28;20910;-77
2021/08/05 08:38:23;;;;;;;4.80;4.50;;;21.10;1.00;;;;;;5104126;28;20453;-77
2021/08/05 08:40:52;;;;;;;6.30;4.47;;;21.20;1.00;;;;;;5108463;28;20524;-77
2021/08/05 08:43:20;;;;;;;6.73;4.93;;;21.50;1.00;;;;;;5108397;28;20492;-77
2021/08/05 08:45:51;;;;;;;5.90;4.00;;;21.60;1.00;;;;;;5106735;28;20460;-77
2021/08/05 08:48:20;;;;;;;5.20;4.53;;;21.60;1.00;;;;;;5105075;28;20407;-77
2021/08/05 08:50:54;;;;;;;4.67;4.37;;;21.40;1.00;;;;;;5088267;28;20444;-78
2021/08/05 08:53:27;;;;;;;4.30;3.90;;;21.60;1.00;;;;;;5104337;28;20415;-77
2021/08/05 08:55:56;;;;;;;7.17;4.00;;;21.80;1.00;;;;;;5102638;28;20445;-78
2021/08/05 08:58:25;;;;;;;5.10;3.80;;;21.80;1.00;;;;;;5090362;28;20473;-77
2021/08/05 09:00:53;;;;;;;4.87;4.40;;;21.80;1.00;;;;;;5104099;28;20496;-78
2021/08/05 09:03:21;;;;;;;5.33;3.80;;;21.80;1.00;;;;;;5081297;28;20426;-77
2021/08/05 09:05:50;;;;;;;5.93;3.43;;;21.80;1.00;;;;;;5072799;28;20457;-77
2021/08/05 09:08:19;;;;;;;4.70;4.23;;;22.00;1.00;;;;;;5092053;28;20438;-78
2021/08/05 09:10:48;;;;;;;5.17;4.10;;;22.20;1.00;;;;;;5093045;28;20431;-79
2021/08/05 09:13:17;;;;;;;5.63;4.17;;;22.10;1.00;;;;;;5099463;28;20427;-78
2021/08/05 09:15:47;;;;;;;5.80;3.93;;;22.00;1.00;;;;;;5097258;28;20425;-79
2021/08/05 09:18:31;;;;;;;4.07;3.67;;;22.10;1.00;;;;;;5098286;28;20453;-78
2021/08/05 09:21:06;;;;;;;4.30;3.90;;;22.10;1.00;;;;;;5097117;28;20538;-78
2021/08/05 09:23:49;;;;;;;5.33;4.83;;;22.30;1.00;;;;;;5096987;28;20427;-77
2021/08/05 09:26:26;;;;;;;5.17;4.67;;;22.30;1.00;;;;;;5100804;28;20516;-78
2021/08/05 09:29:06;;;;;;;5.40;4.90;;;22.40;1.00;;;;;;5097802;28;20413;-78
2021/08/05 09:31:36;;;;;;;5.70;4.60;;;22.60;1.00;;;;;;5097619;28;20443;-79
2021/08/05 09:34:07;;;;;;;4.63;4.13;;;22.70;1.00;;;;;;5096494;28;20791;-79
2021/08/05 09:36:36;;;;;;;5.03;4.53;;;22.80;1.00;;;;;;5097815;28;20757;-78
2021/08/05 09:39:17;;;;;;;4.30;3.90;;;22.80;1.00;;;;;;5097792;28;20912;-78
2021/08/05 09:41:57;;;;;;;5.70;3.77;;;22.90;1.00;;;;;;5102360;28;20412;-79
2021/08/05 09:44:25;;;;;;;4.00;3.50;;;23.20;1.00;;;;;;5079810;28;20428;-80
2021/08/05 09:47:05;;;;;;;4.97;4.17;;;23.10;1.00;;;;;;5079944;28;20541;-78
2021/08/05 09:49:35;;;;;;;4.70;4.30;;;22.70;1.00;;;;;;5103685;28;20391;-79
2021/08/05 09:52:07;;;;;;;3.40;3.07;;;22.90;1.00;;;;;;5103320;28;20546;-78
2021/08/05 09:54:41;;;;;;;4.83;4.10;;;23.50;1.00;;;;;;5104646;28;20396;-78
2021/08/05 09:57:12;;;;;;;4.30;3.90;;;23.90;1.00;;;;;;5102909;28;20448;-78
2021/08/05 09:59:54;;;;;;;3.80;3.50;;;24.20;1.00;;;;;;5101327;28;20400;-78
2021/08/05 10:02:25;;;;;;;3.30;3.00;;;24.60;1.00;;;;;;5102014;28;20755;-78
2021/08/05 10:04:54;;;;;;;3.70;3.27;;;24.50;1.00;;;;;;5097736;28;20484;-76
2021/08/05 10:07:22;;;;;;;7.37;3.40;;;24.80;1.00;;;;;;5098667;28;20400;-79
2021/08/05 10:09:59;;;;;;;3.30;3.00;;;25.10;1.00;;;;;;5101368;28;20883;-79
2021/08/05 10:12:31;;;;;;;3.40;3.10;;;25.20;1.00;;;;;;5100979;28;20471;-78
2021/08/05 10:15:09;;;;;;;3.30;3.00;;;25.00;1.00;;;;;;5100355;28;20430;-77
2021/08/05 10:17:38;;;;;;;3.77;3.40;;;24.40;1.00;;;;;;5100006;28;20424;-77
2021/08/05 10:20:09;;;;;;;3.87;3.43;;;24.50;1.00;;;;;;5099000;28;20427;-77
2021/08/05 10:22:38;;;;;;;4.27;3.53;;;24.30;1.00;;;;;;5102365;28;20418;-78
2021/08/05 10:25:10;;;;;;;4.37;3.70;;;24.20;1.00;;;;;;5099893;28;20400;-79
2021/08/05 10:27:39;;;;;;;3.37;3.07;;;24.30;1.00;;;;;;5098995;28;20417;-77
2021/08/05 10:30:10;;;;;;;4.10;3.70;;;23.90;1.00;;;;;;5100520;28;20396;-77
2021/08/05 10:32:39;;;;;;;3.63;3.13;;;23.90;1.00;;;;;;5102207;28;20444;-78
2021/08/05 10:35:09;;;;;;;4.20;3.80;;;23.90;1.00;;;;;;5084492;28;20780;-78
2021/08/05 10:37:39;;;;;;;5.53;3.70;;;24.30;1.00;;;;;;5100432;28;20426;-78
2021/08/05 10:40:12;;;;;;;4.10;3.70;;;24.50;1.00;;;;;;5099463;28;20471;-78
2021/08/05 10:42:43;;;;;;;8.87;3.50;;;24.50;1.00;;;;;;5101125;28;20388;-77
2021/08/05 10:45:12;;;;;;;4.93;3.17;;;24.80;1.00;;;;;;5098390;28;20762;-77
2021/08/05 10:47:42;;;;;;;3.23;2.93;;;24.90;1.00;;;;;;5098550;28;20441;-77
2021/08/05 10:50:13;;;;;;;2.80;2.50;;;25.10;1.00;;;;;;5098683;28;20403;-77
2021/08/05 10:52:45;;;;;;;3.93;3.30;;;25.30;1.00;;;;;;5097410;28;20497;-76
2021/08/05 10:55:34;;;;;;;3.30;3.00;;;25.40;1.00;;;;;;5099210;28;20767;-77
2021/08/05 10:58:20;;;;;;;2.87;2.63;;;24.80;1.00;;;;;;5101748;28;20422;-77
2021/08/05 11:00:58;;;;;;;3.47;3.17;;;24.90;1.00;;;;;;5076132;28;20454;-77
2021/08/05 11:03:47;;;;;;;4.93;3.43;;;24.30;1.00;;;;;;5075128;28;20536;-77
2021/08/05 11:06:31;;;;;;;4.60;3.03;;;24.10;1.00;;;;;;5092500;28;20413;-79
2021/08/05 11:09:27;;;;;;;3.47;3.03;;;23.90;1.00;;;;;;5074761;28;20792;-77
2021/08/05 11:12:17;;;;;;;3.53;3.23;;;23.60;1.00;;;;;;5086450;28;21100;-77
2021/08/05 11:14:46;;;;;;;3.30;3.00;;;23.50;1.00;;;;;;5092295;28;20425;-77
2021/08/05 11:17:14;;;;;;;3.10;2.90;;;23.50;1.00;;;;;;5092055;28;20407;-78
2021/08/05 11:19:43;;;;;;;3.77;3.40;;;23.40;1.00;;;;;;5092088;28;20396;-77
2021/08/05 11:22:45;;;;;;;2.90;2.63;;;23.90;1.00;;;;;;5091131;28;20544;-77
2021/08/05 11:25:15;;;;;;;3.53;3.23;;;23.90;1.00;;;;;;5081507;28;20774;-77
2021/08/05 11:28:21;;;;;;;3.80;3.50;;;24.00;1.00;;;;;;5076015;28;20407;-77
2021/08/05 11:30:54;;;;;;;5.63;3.03;;;24.00;1.00;;;;;;5092755;28;20817;-76
2021/08/05 11:33:48;;;;;;;4.10;3.70;;;24.30;1.00;;;;;;5091718;28;20497;-77
2021/08/05 11:36:26;;;;;;;3.70;3.40;;;24.30;1.00;;;;;;5090548;28;20400;-77
2021/08/05 11:39:04;;;;;;;4.27;3.87;;;24.80;1.00;;;;;;5090871;28;20408;-77
2021/08/05 11:41:45;;;;;;;3.03;2.50;;;25.10;1.00;;;;;;5091212;28;20469;-77
2021/08/05 11:44:29;;;;;;;3.80;3.50;;;25.10;1.00;;;;;;5091217;28;20424;-77
2021/08/05 11:47:20;;;;;;;4.40;3.10;;;24.70;1.00;;;;;;5090645;28;20424;-76
2021/08/05 11:49:51;;;;;;;3.27;2.97;;;25.10;1.00;;;;;;5091606;28;20385;-78
2021/08/05 11:52:21;;;;;;;2.80;2.47;;;25.10;1.00;;;;;;5073196;28;20452;-78
2021/08/05 11:54:51;;;;;;;3.37;3.07;;;25.40;1.00;;;;;;5073375;28;20423;-75
2021/08/05 11:57:20;;;;;;;4.00;3.70;;;25.70;1.00;;;;;;5091036;28;20422;-76
2021/08/05 11:59:51;;;;;;;5.20;3.30;;;25.90;1.00;;;;;;5090723;28;20427;-76
2021/08/05 12:02:21;;;;;;;5.60;3.53;;;26.00;1.00;;;;;;5091148;28;20441;-76
2021/08/05 12:04:51;;;;;;;3.80;3.50;;;26.00;1.00;;;;;;5091241;28;20521;-79
2021/08/05 12:07:30;;;;;;;3.10;2.80;;;26.00;1.00;;;;;;5092084;28;20396;-77
2021/08/05 12:10:12;;;;;;;3.10;2.80;;;26.40;1.00;;;;;;5090786;28;20523;-77
2021/08/05 12:12:46;;;;;;;5.37;3.10;;;26.80;1.00;;;;;;5090951;28;20507;-77
2021/08/05 12:15:18;;;;;;;3.20;3.00;;;26.40;1.00;;;;;;5090011;28;20396;-77
2021/08/05 12:17:48;;;;;;;4.50;3.57;;;26.10;1.00;;;;;;5072499;28;20481;-76
2021/08/05 12:20:19;;;;;;;4.23;3.73;;;25.40;1.00;;;;;;5090290;28;20414;-77
2021/08/05 12:22:50;;;;;;;3.37;3.07;;;24.80;1.00;;;;;;5090639;28;20429;-77
2021/08/05 12:25:27;;;;;;;4.20;3.03;;;24.80;1.00;;;;;;5090138;28;20421;-76
2021/08/05 12:27:58;;;;;;;3.00;2.33;;;25.10;1.00;;;;;;5090683;28;20611;-78
2021/08/05 12:30:38;;;;;;;3.57;3.27;;;25.00;1.00;;;;;;5072366;28;20424;-76
2021/08/05 12:33:12;;;;;;;2.87;2.67;;;25.30;1.00;;;;;;5090596;28;20982;-75
2021/08/05 12:35:41;;;;;;;2.63;2.43;;;25.70;1.00;;;;;;5090290;28;20449;-76
2021/08/05 12:38:14;;;;;;;4.43;2.87;;;26.00;1.00;;;;;;5090616;28;20804;-76
2021/08/05 12:40:46;;;;;;;3.67;3.30;;;26.20;1.00;;;;;;5090273;28;20519;-78
2021/08/05 12:43:15;;;;;;;3.60;3.30;;;25.80;1.00;;;;;;5091186;28;20428;-76
2021/08/05 12:45:48;;;;;;;4.00;3.57;;;25.90;1.00;;;;;;5090430;28;20400;-77
2021/08/05 12:48:17;;;;;;;3.53;3.23;;;26.00;1.00;;;;;;5090051;28;20985;-78
2021/08/05 12:50:47;;;;;;;2.83;2.63;;;25.40;1.00;;;;;;5090371;28;20445;-77
2021/08/05 12:53:28;;;;;;;4.43;4.03;;;25.10;1.00;;;;;;5091388;28;20489;-77
2021/08/05 12:55:58;;;;;;;3.10;2.80;;;24.80;1.00;;;;;;5090134;28;20428;-77
2021/08/05 12:58:28;;;;;;;4.40;4.00;;;24.60;1.00;;;;;;5092796;28;20429;-76
2021/08/05 13:01:39;;;;;;;3.50;3.20;;;24.50;1.00;;;;;;5092073;28;20439;-75
2021/08/05 13:04:21;;;;;;;3.90;3.53;;;24.30;1.00;;;;;;5104737;28;20424;-78
2021/08/05 13:06:52;;;;;;;3.67;3.37;;;24.30;1.00;;;;;;5105175;28;20414;-77
2021/08/05 13:09:22;;;;;;;3.60;3.30;;;24.40;1.00;;;;;;5104862;28;20408;-74
2021/08/05 13:11:51;;;;;;;3.77;3.47;;;24.40;1.00;;;;;;5106623;28;20434;-75
2021/08/05 13:14:30;;;;;;;5.07;4.27;;;24.50;1.00;;;;;;5113323;28;20531;-77
2021/08/05 13:17:05;;;;;;;3.70;3.30;;;24.40;1.00;;;;;;5115075;28;20439;-78
2021/08/05 13:19:55;;;;;;;4.80;3.40;;;24.60;1.00;;;;;;5109687;28;20444;-78
2021/08/05 13:22:37;;;;;;;3.90;3.60;;;24.70;1.00;;;;;;5105217;28;20448;-77